KFME/FME METAR and TAF weather

Enter ICAO airport designator
Station Type Date Time Source
KFME METAR 2020/09/19 23:15 UTC NOAA

KFME 192315Z AUTO 00000KT 10SM CLR 10/08 A3034 RMK AO1


Station Type Date Time Source
KFME Decoded METAR 2020/09/19 23:15 UTC NOAA

Fort Meade / Tipton, MD, United States (KFME) 39-05N 076-46W
Sep 19, 2020 - 07:15 PM EDT / 2020.09.19 2315 UTC
Wind: Calm:0
Visibility: 10 mile(s):0
Sky conditions: clear
Temperature: 50 F (10 C)
Dew Point: 46 F (8 C)
Relative Humidity: 87%
Pressure (altimeter): 30.34 in. Hg (1027 hPa)
ob: KFME 192315Z AUTO 00000KT 10SM CLR 10/08 A3034 RMK AO1
cycle: 23

Station Type Date Time Source
KFME TAF UTC NOAA

Error!

Example: see airport list